KMQI

Dare County Regional Airport

Manteo, North Carolina, USA
METAR KMQI 221515Z AUTO 25006KT 10SM OVC020 25/22 A3014 RMK AO2 T02500215
Observed Flight Rules
May-22 @ 15:15 UTC (16 minutes ago) Marginal Visual Flight Rules
Wind Visibility Clouds
250° at 6 knots 10 miles
  • Overcast at 2,000' AGL
Temperatures Readings
Current 25°C / 77°F
Dewpoint 22°C / 72°F
Humidity 83%
Altimeter 30.14" Hg
Pressure 1021 hPa
Elevation 4
METAR KMQI 221515Z AUTO 25006KT 10SM OVC020 25/22 A3014 RMK AO2 T02500215
Observed Flight Rules
May-22 @ 15:15 UTC
(16 minutes ago)
MVFR
Wind Visibility
250° at 6 knots 10 miles
Clouds
  • Overcast at 2,000' AGL
Temperature Dewpoint
25°C / 77°F 22°C / 72°F
Humidity Altimeter Pressure
83% 30.14" Hg 1021 hPa